sensor_id;sensor_type;location;lat;lon;timestamp;pressure;altitude;pressure_sealevel;temperature;humidity
76424;BME280;65257;52.104;4.268;2023-02-22T00:00:48;101551.94;;;6.99;100.00
76424;BME280;65257;52.104;4.268;2023-02-22T00:03:22;101550.44;;;6.87;100.00
76424;BME280;65257;52.104;4.268;2023-02-22T00:05:57;101546.03;;;6.85;100.00
76424;BME280;65257;52.104;4.268;2023-02-22T00:08:26;101537.31;;;6.94;100.00
76424;BME280;65257;52.104;4.268;2023-02-22T00:10:59;101533.22;;;6.83;100.00
76424;BME280;65257;52.104;4.268;2023-02-22T00:13:25;101529.31;;;6.75;100.00
76424;BME280;65257;52.104;4.268;2023-02-22T00:15:54;101532.06;;;6.78;100.00
76424;BME280;65257;52.104;4.268;2023-02-22T00:18:19;101527.16;;;6.81;100.00
76424;BME280;65257;52.104;4.268;2023-02-22T00:20:45;101517.41;;;6.74;100.00
76424;BME280;65257;52.104;4.268;2023-02-22T00:23:16;101522.00;;;6.80;100.00
76424;BME280;65257;52.104;4.268;2023-02-22T00:25:47;101521.88;;;6.78;100.00
76424;BME280;65257;52.104;4.268;2023-02-22T00:28:13;101523.63;;;6.92;100.00
76424;BME280;65257;52.104;4.268;2023-02-22T00:30:39;101516.75;;;6.91;100.00
76424;BME280;65257;52.104;4.268;2023-02-22T00:33:08;101522.13;;;6.96;100.00
76424;BME280;65257;52.104;4.268;2023-02-22T00:35:34;101520.38;;;6.95;100.00
76424;BME280;65257;52.104;4.268;2023-02-22T00:38:00;101519.94;;;7.02;100.00
76424;BME280;65257;52.104;4.268;2023-02-22T00:40:29;101523.94;;;6.84;100.00
76424;BME280;65257;52.104;4.268;2023-02-22T00:42:55;101517.81;;;6.80;100.00
76424;BME280;65257;52.104;4.268;2023-02-22T00:45:23;101517.81;;;6.80;100.00
76424;BME280;65257;52.104;4.268;2023-02-22T00:47:49;101518.09;;;6.72;100.00
76424;BME280;65257;52.104;4.268;2023-02-22T00:50:16;101522.81;;;6.66;100.00
76424;BME280;65257;52.104;4.268;2023-02-22T00:52:41;101520.19;;;6.64;100.00
76424;BME280;65257;52.104;4.268;2023-02-22T00:55:09;101522.91;;;6.67;100.00
76424;BME280;65257;52.104;4.268;2023-02-22T00:57:36;101529.19;;;6.59;100.00
76424;BME280;65257;52.104;4.268;2023-02-22T01:00:05;101520.22;;;6.51;100.00
76424;BME280;65257;52.104;4.268;2023-02-22T01:02:40;101532.53;;;6.45;100.00
76424;BME280;65257;52.104;4.268;2023-02-22T01:05:08;101523.31;;;6.47;100.00
76424;BME280;65257;52.104;4.268;2023-02-22T01:07:34;101519.06;;;6.46;100.00
76424;BME280;65257;52.104;4.268;2023-02-22T01:10:01;101517.97;;;6.43;100.00
76424;BME280;65257;52.104;4.268;2023-02-22T01:12:28;101509.75;;;6.47;100.00
76424;BME280;65257;52.104;4.268;2023-02-22T01:14:53;101516.09;;;6.53;100.00
76424;BME280;65257;52.104;4.268;2023-02-22T01:17:22;101516.09;;;6.53;100.00
76424;BME280;65257;52.104;4.268;2023-02-22T01:19:47;101539.31;;;6.32;100.00
76424;BME280;65257;52.104;4.268;2023-02-22T01:22:13;101517.69;;;6.25;100.00
76424;BME280;65257;52.104;4.268;2023-02-22T01:24:38;101508.22;;;6.22;100.00
76424;BME280;65257;52.104;4.268;2023-02-22T01:27:03;101507.81;;;6.16;100.00
76424;BME280;65257;52.104;4.268;2023-02-22T01:29:29;101510.09;;;6.12;100.00
76424;BME280;65257;52.104;4.268;2023-02-22T01:31:55;101508.34;;;6.11;100.00
76424;BME280;65257;52.104;4.268;2023-02-22T01:34:21;101499.72;;;6.09;100.00
76424;BME280;65257;52.104;4.268;2023-02-22T01:36:48;101506.38;;;6.07;100.00
76424;BME280;65257;52.104;4.268;2023-02-22T01:39:14;101499.56;;;6.06;100.00
76424;BME280;65257;52.104;4.268;2023-02-22T01:41:43;101490.78;;;6.01;100.00
76424;BME280;65257;52.104;4.268;2023-02-22T01:44:35;101489.00;;;6.00;100.00
76424;BME280;65257;52.104;4.268;2023-02-22T01:47:03;101484.50;;;6.09;100.00
76424;BME280;65257;52.104;4.268;2023-02-22T01:49:39;101481.19;;;6.10;100.00
76424;BME280;65257;52.104;4.268;2023-02-22T01:52:08;101487.63;;;6.05;100.00
76424;BME280;65257;52.104;4.268;2023-02-22T01:54:39;101474.16;;;6.06;100.00
76424;BME280;65257;52.104;4.268;2023-02-22T01:57:20;101476.09;;;6.10;100.00
76424;BME280;65257;52.104;4.268;2023-02-22T01:59:51;101475.69;;;6.04;100.00
76424;BME280;65257;52.104;4.268;2023-02-22T02:02:17;101470.06;;;5.95;100.00
76424;BME280;65257;52.104;4.268;2023-02-22T02:04:46;101471.22;;;5.87;100.00
76424;BME280;65257;52.104;4.268;2023-02-22T02:07:14;101472.78;;;5.85;100.00
76424;BME280;65257;52.104;4.268;2023-02-22T02:09:58;101462.22;;;5.79;100.00
76424;BME280;65257;52.104;4.268;2023-02-22T02:12:24;101471.09;;;5.72;100.00
76424;BME280;65257;52.104;4.268;2023-02-22T02:14:50;101463.16;;;5.67;100.00
76424;BME280;65257;52.104;4.268;2023-02-22T02:17:18;101468.56;;;5.59;100.00
76424;BME280;65257;52.104;4.268;2023-02-22T02:44:27;101424.91;;;5.51;100.00
76424;BME280;65257;52.104;4.268;2023-02-22T02:47:01;101423.28;;;5.52;100.00
76424;BME280;65257;52.104;4.268;2023-02-22T02:49:35;101416.03;;;5.58;100.00
76424;BME280;65257;52.104;4.268;2023-02-22T02:52:03;101412.72;;;5.59;100.00
76424;BME280;65257;52.104;4.268;2023-02-22T02:54:29;101411.16;;;5.61;100.00
76424;BME280;65257;52.104;4.268;2023-02-22T02:56:56;101412.31;;;5.53;100.00
76424;BME280;65257;52.104;4.268;2023-02-22T02:59:28;101400.72;;;5.56;100.00
76424;BME280;65257;52.104;4.268;2023-02-22T03:02:05;101400.81;;;5.58;100.00
76424;BME280;65257;52.104;4.268;2023-02-22T03:16:49;101372.53;;;5.39;100.00
76424;BME280;65257;52.104;4.268;2023-02-22T03:19:25;101362.38;;;5.39;100.00
76424;BME280;65257;52.104;4.268;2023-02-22T03:22:11;101356.22;;;5.35;100.00
76424;BME280;65257;52.104;4.268;2023-02-22T03:24:46;101347.81;;;5.36;100.00
76424;BME280;65257;52.104;4.268;2023-02-22T03:29:54;101346.66;;;5.31;100.00
76424;BME280;65257;52.104;4.268;2023-02-22T03:32:26;101338.44;;;5.22;100.00
76424;BME280;65257;52.104;4.268;2023-02-22T03:34:57;101335.91;;;5.22;100.00
76424;BME280;65257;52.104;4.268;2023-02-22T03:37:28;101335.34;;;5.26;100.00
76424;BME280;65257;52.104;4.268;2023-02-22T03:39:57;101330.97;;;5.24;100.00
76424;BME280;65257;52.104;4.268;2023-02-22T03:42:31;101326.56;;;5.21;100.00
76424;BME280;65257;52.104;4.268;2023-02-22T03:45:01;101327.94;;;5.16;100.00
76424;BME280;65257;52.104;4.268;2023-02-22T03:47:41;101327.03;;;5.16;100.00
76424;BME280;65257;52.104;4.268;2023-02-22T03:50:17;101330.34;;;5.15;100.00
76424;BME280;65257;52.104;4.268;2023-02-22T03:52:44;101324.41;;;5.14;100.00
76424;BME280;65257;52.104;4.268;2023-02-22T03:55:12;101317.59;;;5.13;100.00
76424;BME280;65257;52.104;4.268;2023-02-22T03:57:45;101306.34;;;5.10;100.00
76424;BME280;65257;52.104;4.268;2023-02-22T04:00:16;101307.81;;;5.06;100.00
76424;BME280;65257;52.104;4.268;2023-02-22T04:02:42;101296.91;;;5.07;100.00
76424;BME280;65257;52.104;4.268;2023-02-22T04:05:07;101296.81;;;5.05;100.00
76424;BME280;65257;52.104;4.268;2023-02-22T04:07:33;101305.94;;;5.03;100.00
76424;BME280;65257;52.104;4.268;2023-02-22T04:09:58;101294.56;;;4.97;100.00
76424;BME280;65257;52.104;4.268;2023-02-22T04:12:26;101292.03;;;4.97;100.00
76424;BME280;65257;52.104;4.268;2023-02-22T04:14:52;101288.59;;;4.96;100.00
76424;BME280;65257;52.104;4.268;2023-02-22T04:17:17;101286.19;;;4.98;100.00
76424;BME280;65257;52.104;4.268;2023-02-22T04:19:43;101284.81;;;5.03;100.00
76424;BME280;65257;52.104;4.268;2023-02-22T04:22:10;101281.78;;;4.95;100.00
76424;BME280;65257;52.104;4.268;2023-02-22T04:24:35;101284.22;;;4.94;100.00
76424;BME280;65257;52.104;4.268;2023-02-22T04:27:01;101279.34;;;4.97;100.00
76424;BME280;65257;52.104;4.268;2023-02-22T04:29:28;101278.06;;;5.03;100.00
76424;BME280;65257;52.104;4.268;2023-02-22T04:31:53;101272.31;;;5.06;100.00
76424;BME280;65257;52.104;4.268;2023-02-22T04:34:19;101270.78;;;5.08;100.00
76424;BME280;65257;52.104;4.268;2023-02-22T04:36:44;101281.88;;;5.10;100.00
76424;BME280;65257;52.104;4.268;2023-02-22T04:39:10;101272.63;;;5.11;100.00
76424;BME280;65257;52.104;4.268;2023-02-22T04:41:35;101275.25;;;5.12;100.00
76424;BME280;65257;52.104;4.268;2023-02-22T04:44:01;101266.88;;;5.13;100.00
76424;BME280;65257;52.104;4.268;2023-02-22T04:46:26;101270.47;;;5.03;100.00
76424;BME280;65257;52.104;4.268;2023-02-22T04:48:52;101267.56;;;5.11;100.00
76424;BME280;65257;52.104;4.268;2023-02-22T04:51:18;101264.63;;;5.18;100.00
76424;BME280;65257;52.104;4.268;2023-02-22T04:53:44;101263.94;;;5.20;100.00
76424;BME280;65257;52.104;4.268;2023-02-22T04:56:09;101262.75;;;5.15;100.00
76424;BME280;65257;52.104;4.268;2023-02-22T04:58:35;101260.78;;;5.24;100.00
76424;BME280;65257;52.104;4.268;2023-02-22T05:01:00;101260.91;;;5.26;100.00
76424;BME280;65257;52.104;4.268;2023-02-22T05:03:25;101263.34;;;5.11;100.00
76424;BME280;65257;52.104;4.268;2023-02-22T05:05:51;101258.25;;;5.11;100.00
76424;BME280;65257;52.104;4.268;2023-02-22T05:08:17;101258.25;;;5.11;100.00
76424;BME280;65257;52.104;4.268;2023-02-22T05:10:42;101253.78;;;5.07;100.00
76424;BME280;65257;52.104;4.268;2023-02-22T05:13:08;101258.25;;;5.11;100.00
76424;BME280;65257;52.104;4.268;2023-02-22T05:15:33;101246.19;;;5.07;100.00
76424;BME280;65257;52.104;4.268;2023-02-22T05:17:59;101257.69;;;5.02;100.00
76424;BME280;65257;52.104;4.268;2023-02-22T05:20:27;101252.03;;;5.06;100.00
76424;BME280;65257;52.104;4.268;2023-02-22T05:22:57;101241.41;;;4.98;100.00
76424;BME280;65257;52.104;4.268;2023-02-22T05:25:23;101240.34;;;4.95;100.00
76424;BME280;65257;52.104;4.268;2023-02-22T05:27:54;101234.88;;;4.89;100.00
76424;BME280;65257;52.104;4.268;2023-02-22T05:30:24;101236.66;;;4.90;100.00
76424;BME280;65257;52.104;4.268;2023-02-22T05:32:50;101236.31;;;4.98;100.00
76424;BME280;65257;52.104;4.268;2023-02-22T05:35:17;101227.06;;;4.99;100.00
76424;BME280;65257;52.104;4.268;2023-02-22T05:37:43;101237.63;;;5.05;100.00
76424;BME280;65257;52.104;4.268;2023-02-22T05:40:08;101237.00;;;4.96;100.00
76424;BME280;65257;52.104;4.268;2023-02-22T05:42:34;101235.66;;;5.01;100.00
76424;BME280;65257;52.104;4.268;2023-02-22T05:45:00;101237.41;;;5.02;100.00
76424;BME280;65257;52.104;4.268;2023-02-22T05:47:26;101229.03;;;5.03;100.00
76424;BME280;65257;52.104;4.268;2023-02-22T05:49:51;101229.81;;;5.02;100.00
76424;BME280;65257;52.104;4.268;2023-02-22T05:52:17;101225.91;;;5.07;100.00
76424;BME280;65257;52.104;4.268;2023-02-22T05:54:42;101213.81;;;5.03;100.00
76424;BME280;65257;52.104;4.268;2023-02-22T05:57:08;101214.00;;;5.06;100.00
76424;BME280;65257;52.104;4.268;2023-02-22T05:59:33;101214.19;;;5.09;100.00
76424;BME280;65257;52.104;4.268;2023-02-22T06:01:58;101209.13;;;5.09;100.00
76424;BME280;65257;52.104;4.268;2023-02-22T06:04:24;101204.44;;;5.02;100.00
76424;BME280;65257;52.104;4.268;2023-02-22T06:06:49;101193.56;;;4.90;100.00
76424;BME280;65257;52.104;4.268;2023-02-22T06:09:14;101180.69;;;4.87;100.00
76424;BME280;65257;52.104;4.268;2023-02-22T06:11:40;101176.16;;;4.96;100.00
76424;BME280;65257;52.104;4.268;2023-02-22T06:14:05;101177.75;;;4.94;100.00
76424;BME280;65257;52.104;4.268;2023-02-22T06:16:31;101159.22;;;4.95;100.00
76424;BME280;65257;52.104;4.268;2023-02-22T06:18:56;101164.66;;;5.01;100.00
76424;BME280;65257;52.104;4.268;2023-02-22T06:21:23;101183.41;;;5.03;100.00
76424;BME280;65257;52.104;4.268;2023-02-22T06:23:48;101191.78;;;5.02;100.00
76424;BME280;65257;52.104;4.268;2023-02-22T06:26:18;101191.47;;;5.11;100.00
76424;BME280;65257;52.104;4.268;2023-02-22T06:28:44;101183.06;;;5.12;100.00
76424;BME280;65257;52.104;4.268;2023-02-22T06:31:10;101180.84;;;5.16;100.00
76424;BME280;65257;52.104;4.268;2023-02-22T06:33:35;101185.13;;;5.17;100.00
76424;BME280;65257;52.104;4.268;2023-02-22T06:36:00;101189.41;;;5.18;100.00
76424;BME280;65257;52.104;4.268;2023-02-22T06:38:26;101192.91;;;5.20;100.00
76424;BME280;65257;52.104;4.268;2023-02-22T06:40:52;101195.22;;;5.30;100.00
76424;BME280;65257;52.104;4.268;2023-02-22T06:43:19;101201.19;;;5.31;100.00
76424;BME280;65257;52.104;4.268;2023-02-22T06:45:45;101207.16;;;5.31;100.00
76424;BME280;65257;52.104;4.268;2023-02-22T06:48:10;101205.84;;;5.38;100.00
76424;BME280;65257;52.104;4.268;2023-02-22T06:50:36;101205.38;;;5.30;100.00
76424;BME280;65257;52.104;4.268;2023-02-22T06:53:02;101195.63;;;5.36;100.00
76424;BME280;65257;52.104;4.268;2023-02-22T06:55:30;101206.63;;;5.37;100.00
76424;BME280;65257;52.104;4.268;2023-02-22T06:57:56;101197.00;;;5.31;100.00
76424;BME280;65257;52.104;4.268;2023-02-22T07:00:23;101187.53;;;5.29;100.00
76424;BME280;65257;52.104;4.268;2023-02-22T07:02:50;101202.56;;;5.26;100.00
76424;BME280;65257;52.104;4.268;2023-02-22T07:05:20;101193.47;;;5.29;100.00
76424;BME280;65257;52.104;4.268;2023-02-22T07:07:48;101209.06;;;5.35;100.00
76424;BME280;65257;52.104;4.268;2023-02-22T07:10:26;101213.94;;;5.32;100.00
76424;BME280;65257;52.104;4.268;2023-02-22T07:12:52;101197.47;;;5.39;100.00
76424;BME280;65257;52.104;4.268;2023-02-22T07:15:22;101197.16;;;5.34;100.00
76424;BME280;65257;52.104;4.268;2023-02-22T07:17:50;101207.16;;;5.31;100.00
76424;BME280;65257;52.104;4.268;2023-02-22T07:20:16;101214.16;;;5.35;100.00
76424;BME280;65257;52.104;4.268;2023-02-22T07:22:42;101209.56;;;5.30;100.00
76424;BME280;65257;52.104;4.268;2023-02-22T07:25:09;101219.03;;;5.32;100.00
76424;BME280;65257;52.104;4.268;2023-02-22T07:27:36;101209.47;;;5.41;100.00
76424;BME280;65257;52.104;4.268;2023-02-22T07:30:09;101196.47;;;5.37;100.00
76424;BME280;65257;52.104;4.268;2023-02-22T07:32:41;101202.81;;;5.43;100.00
76424;BME280;65257;52.104;4.268;2023-02-22T07:35:15;101196.16;;;5.45;100.00
76424;BME280;65257;52.104;4.268;2023-02-22T07:37:42;101204.38;;;5.41;100.00
76424;BME280;65257;52.104;4.268;2023-02-22T07:40:08;101207.88;;;5.43;100.00
76424;BME280;65257;52.104;4.268;2023-02-22T07:42:52;101207.13;;;5.44;100.00
76424;BME280;65257;52.104;4.268;2023-02-22T07:45:20;101201.44;;;5.48;100.00
76424;BME280;65257;52.104;4.268;2023-02-22T07:47:46;101196.34;;;5.48;100.00
76424;BME280;65257;52.104;4.268;2023-02-22T07:50:16;101177.81;;;5.49;100.00
76424;BME280;65257;52.104;4.268;2023-02-22T07:52:51;101176.06;;;5.48;100.00
76424;BME280;65257;52.104;4.268;2023-02-22T07:55:20;101187.59;;;5.43;100.00
76424;BME280;65257;52.104;4.268;2023-02-22T07:57:47;101178.31;;;5.44;100.00
76424;BME280;65257;52.104;4.268;2023-02-22T08:00:14;101197.13;;;5.47;100.00
76424;BME280;65257;52.104;4.268;2023-02-22T08:02:41;101194.97;;;5.53;100.00
76424;BME280;65257;52.104;4.268;2023-02-22T08:05:11;101185.97;;;5.58;100.00
76424;BME280;65257;52.104;4.268;2023-02-22T08:07:38;101186.34;;;5.64;100.00
76424;BME280;65257;52.104;4.268;2023-02-22T08:10:07;101181.34;;;5.66;100.00
76424;BME280;65257;52.104;4.268;2023-02-22T08:12:38;101175.59;;;5.68;100.00
76424;BME280;65257;52.104;4.268;2023-02-22T08:15:07;101170.94;;;5.61;100.00
76424;BME280;65257;52.104;4.268;2023-02-22T08:17:38;101180.66;;;5.68;100.00
76424;BME280;65257;52.104;4.268;2023-02-22T08:20:05;101165.63;;;5.72;100.00
76424;BME280;65257;52.104;4.268;2023-02-22T08:22:30;101176.31;;;5.81;100.00
76424;BME280;65257;52.104;4.268;2023-02-22T08:24:56;101164.78;;;5.86;100.00
76424;BME280;65257;52.104;4.268;2023-02-22T08:27:23;101155.78;;;5.91;100.00
76424;BME280;65257;52.104;4.268;2023-02-22T08:29:50;101146.63;;;5.93;100.00
76424;BME280;65257;52.104;4.268;2023-02-22T08:32:15;101134.50;;;5.89;100.00
76424;BME280;65257;52.104;4.268;2023-02-22T08:34:42;101139.50;;;5.87;100.00
76424;BME280;65257;52.104;4.268;2023-02-22T08:37:08;101139.00;;;5.93;100.00
76424;BME280;65257;52.104;4.268;2023-02-22T08:39:34;101141.53;;;6.07;100.00
76424;BME280;65257;52.104;4.268;2023-02-22T08:42:00;101137.84;;;6.17;100.00
76424;BME280;65257;52.104;4.268;2023-02-22T08:44:26;101144.06;;;6.22;100.00
76424;BME280;65257;52.104;4.268;2023-02-22T08:46:51;101136.97;;;6.31;100.00
76424;BME280;65257;52.104;4.268;2023-02-22T08:49:17;101134.75;;;6.37;100.00
76424;BME280;65257;52.104;4.268;2023-02-22T08:51:42;101125.56;;;6.24;100.00
76424;BME280;65257;52.104;4.268;2023-02-22T08:54:08;101140.53;;;6.35;100.00
76424;BME280;65257;52.104;4.268;2023-02-22T08:56:35;101125.59;;;6.39;100.00
76424;BME280;65257;52.104;4.268;2023-02-22T08:59:01;101119.41;;;6.50;100.00
76424;BME280;65257;52.104;4.268;2023-02-22T09:01:27;101113.38;;;6.48;100.00
76424;BME280;65257;52.104;4.268;2023-02-22T09:03:54;101123.97;;;6.56;100.00
76424;BME280;65257;52.104;4.268;2023-02-22T09:06:24;101119.94;;;6.59;100.00
76424;BME280;65257;52.104;4.268;2023-02-22T09:08:50;101121.13;;;6.66;100.00
76424;BME280;65257;52.104;4.268;2023-02-22T09:11:15;101108.75;;;6.72;100.00
76424;BME280;65257;52.104;4.268;2023-02-22T09:13:42;101097.25;;;6.78;100.00
76424;BME280;65257;52.104;4.268;2023-02-22T09:16:10;101093.59;;;6.73;100.00
76424;BME280;65257;52.104;4.268;2023-02-22T09:18:40;101104.25;;;6.82;100.00
76424;BME280;65257;52.104;4.268;2023-02-22T09:21:43;101133.66;;;6.93;100.00
76424;BME280;65257;52.104;4.268;2023-02-22T09:24:17;101154.44;;;7.01;100.00
76424;BME280;65257;52.104;4.268;2023-02-22T09:26:55;101150.47;;;7.06;100.00
76424;BME280;65257;52.104;4.268;2023-02-22T09:29:34;101168.53;;;7.11;100.00
76424;BME280;65257;52.104;4.268;2023-02-22T09:32:00;101182.75;;;7.07;100.00
76424;BME280;65257;52.104;4.268;2023-02-22T09:34:26;101178.19;;;7.02;100.00
76424;BME280;65257;52.104;4.268;2023-02-22T09:36:55;101171.22;;;6.98;100.00
76424;BME280;65257;52.104;4.268;2023-02-22T09:39:21;101181.56;;;7.01;100.00
76424;BME280;65257;52.104;4.268;2023-02-22T09:42:02;101169.97;;;7.06;100.00
76424;BME280;65257;52.104;4.268;2023-02-22T09:44:45;101172.75;;;7.10;100.00
76424;BME280;65257;52.104;4.268;2023-02-22T09:47:18;101177.59;;;7.22;100.00
76424;BME280;65257;52.104;4.268;2023-02-22T09:50:09;101162.84;;;7.31;100.00
76424;BME280;65257;52.104;4.268;2023-02-22T09:52:54;101149.31;;;7.32;100.00
76424;BME280;65257;52.104;4.268;2023-02-22T09:58:19;101156.66;;;7.42;100.00
76424;BME280;65257;52.104;4.268;2023-02-22T10:00:48;101134.03;;;7.48;100.00
76424;BME280;65257;52.104;4.268;2023-02-22T10:03:33;101153.47;;;7.46;100.00
76424;BME280;65257;52.104;4.268;2023-02-22T10:06:10;101157.13;;;7.51;100.00
76424;BME280;65257;52.104;4.268;2023-02-22T10:08:38;101161.09;;;7.46;100.00
76424;BME280;65257;52.104;4.268;2023-02-22T10:11:47;101174.38;;;7.40;100.00
76424;BME280;65257;52.104;4.268;2023-02-22T10:17:23;101170.56;;;7.48;100.00
76424;BME280;65257;52.104;4.268;2023-02-22T10:20:32;101171.03;;;7.41;100.00
76424;BME280;65257;52.104;4.268;2023-02-22T10:26:21;101180.03;;;7.51;100.00
76424;BME280;65257;52.104;4.268;2023-02-22T10:28:51;101180.03;;;7.67;100.00
76424;BME280;65257;52.104;4.268;2023-02-22T10:31:34;101176.06;;;7.88;100.00
76424;BME280;65257;52.104;4.268;2023-02-22T10:34:20;101164.31;;;8.08;100.00
76424;BME280;65257;52.104;4.268;2023-02-22T10:37:03;101159.25;;;8.26;100.00
76424;BME280;65257;52.104;4.268;2023-02-22T10:39:43;101160.22;;;8.28;100.00
76424;BME280;65257;52.104;4.268;2023-02-22T10:42:10;101148.94;;;8.40;100.00
76424;BME280;65257;52.104;4.268;2023-02-22T10:44:36;101147.78;;;8.34;100.00
76424;BME280;65257;52.104;4.268;2023-02-22T10:47:27;101154.50;;;8.32;100.00
76424;BME280;65257;52.104;4.268;2023-02-22T10:50:01;101137.88;;;8.40;100.00
76424;BME280;65257;52.104;4.268;2023-02-22T10:52:32;101132.13;;;8.44;100.00
76424;BME280;65257;52.104;4.268;2023-02-22T10:55:00;101122.72;;;8.43;100.00
76424;BME280;65257;52.104;4.268;2023-02-22T10:57:32;101116.91;;;8.45;100.00
76424;BME280;65257;52.104;4.268;2023-02-22T11:00:35;101134.25;;;8.52;100.00
76424;BME280;65257;52.104;4.268;2023-02-22T11:03:19;101136.88;;;8.54;100.00
76424;BME280;65257;52.104;4.268;2023-02-22T11:05:45;101140.34;;;8.56;100.00
76424;BME280;65257;52.104;4.268;2023-02-22T11:10:51;101127.16;;;8.82;100.00
76424;BME280;65257;52.104;4.268;2023-02-22T11:13:38;101131.72;;;8.89;100.00
76424;BME280;65257;52.104;4.268;2023-02-22T11:16:16;101126.78;;;8.92;100.00
76424;BME280;65257;52.104;4.268;2023-02-22T11:18:42;101130.94;;;8.90;100.00
76424;BME280;65257;52.104;4.268;2023-02-22T11:21:09;101119.06;;;8.91;100.00
76424;BME280;65257;52.104;4.268;2023-02-22T11:23:40;101117.63;;;8.78;100.00
76424;BME280;65257;52.104;4.268;2023-02-22T11:26:15;101122.06;;;8.82;100.00
76424;BME280;65257;52.104;4.268;2023-02-22T11:28:44;101121.97;;;8.98;100.00
76424;BME280;65257;52.104;4.268;2023-02-22T11:31:26;101115.97;;;8.98;100.00
76424;BME280;65257;52.104;4.268;2023-02-22T11:33:58;101106.38;;;8.92;100.00
76424;BME280;65257;52.104;4.268;2023-02-22T11:36:39;101109.69;;;9.09;100.00
76424;BME280;65257;52.104;4.268;2023-02-22T11:39:20;101099.78;;;8.97;100.00
76424;BME280;65257;52.104;4.268;2023-02-22T11:41:49;101096.84;;;9.07;100.00
76424;BME280;65257;52.104;4.268;2023-02-22T11:44:28;101100.47;;;9.12;100.00
76424;BME280;65257;52.104;4.268;2023-02-22T11:47:00;101100.63;;;9.15;100.00
76424;BME280;65257;52.104;4.268;2023-02-22T11:49:43;101093.91;;;9.17;100.00
76424;BME280;65257;52.104;4.268;2023-02-22T11:52:33;101101.16;;;9.47;100.00
76424;BME280;65257;52.104;4.268;2023-02-22T11:55:19;101110.19;;;9.58;100.00
76424;BME280;65257;52.104;4.268;2023-02-22T12:01:01;101103.97;;;9.72;100.00
76424;BME280;65257;52.104;4.268;2023-02-22T12:03:50;101099.91;;;9.77;100.00
76424;BME280;65257;52.104;4.268;2023-02-22T12:09:16;101110.59;;;10.08;100.00
76424;BME280;65257;52.104;4.268;2023-02-22T12:15:00;101080.22;;;11.01;100.00
76424;BME280;65257;52.104;4.268;2023-02-22T12:25:43;101086.94;;;10.33;100.00
76424;BME280;65257;52.104;4.268;2023-02-22T12:28:20;101078.28;;;10.51;100.00
76424;BME280;65257;52.104;4.268;2023-02-22T12:31:22;101092.13;;;10.56;100.00
76424;BME280;65257;52.104;4.268;2023-02-22T12:34:14;101085.34;;;10.57;100.00
76424;BME280;65257;52.104;4.268;2023-02-22T12:37:12;101086.69;;;10.47;100.00
76424;BME280;65257;52.104;4.268;2023-02-22T12:45:47;101076.69;;;10.33;100.00
76424;BME280;65257;52.104;4.268;2023-02-22T12:54:13;101092.94;;;10.55;100.00
76424;BME280;65257;52.104;4.268;2023-02-22T13:00:01;101088.34;;;10.47;100.00
76424;BME280;65257;52.104;4.268;2023-02-22T13:02:33;101091.72;;;10.46;100.00
76424;BME280;65257;52.104;4.268;2023-02-22T13:05:01;101088.91;;;10.60;100.00
76424;BME280;65257;52.104;4.268;2023-02-22T13:07:31;101081.44;;;10.66;100.00
76424;BME280;65257;52.104;4.268;2023-02-22T13:12:55;101088.91;;;10.83;100.00
76424;BME280;65257;52.104;4.268;2023-02-22T13:15:44;101082.63;;;10.75;100.00
76424;BME280;65257;52.104;4.268;2023-02-22T13:18:30;101083.31;;;10.71;100.00
76424;BME280;65257;52.104;4.268;2023-02-22T13:23:46;101069.00;;;10.98;100.00
76424;BME280;65257;52.104;4.268;2023-02-22T13:26:27;101065.38;;;10.93;100.00
76424;BME280;65257;52.104;4.268;2023-02-22T13:29:05;101071.91;;;10.85;100.00
76424;BME280;65257;52.104;4.268;2023-02-22T13:45:53;101086.44;;;10.41;100.00
76424;BME280;65257;52.104;4.268;2023-02-22T13:51:05;101085.63;;;10.64;100.00
76424;BME280;65257;52.104;4.268;2023-02-22T13:53:55;101080.06;;;10.75;100.00
76424;BME280;65257;52.104;4.268;2023-02-22T13:56:24;101087.03;;;10.56;100.00
76424;BME280;65257;52.104;4.268;2023-02-22T13:58:52;101084.47;;;10.56;100.00
76424;BME280;65257;52.104;4.268;2023-02-22T14:01:48;101080.63;;;10.25;100.00
76424;BME280;65257;52.104;4.268;2023-02-22T14:06:54;101090.63;;;10.39;100.00
76424;BME280;65257;52.104;4.268;2023-02-22T14:09:46;101085.97;;;10.51;100.00
76424;BME280;65257;52.104;4.268;2023-02-22T14:17:38;101092.50;;;10.65;100.00
76424;BME280;65257;52.104;4.268;2023-02-22T14:20:18;101094.81;;;10.59;100.00
76424;BME280;65257;52.104;4.268;2023-02-22T14:22:49;101096.66;;;10.63;100.00
76424;BME280;65257;52.104;4.268;2023-02-22T14:25:41;101100.81;;;10.60;100.00
76424;BME280;65257;52.104;4.268;2023-02-22T14:31:21;101114.25;;;10.54;100.00
76424;BME280;65257;52.104;4.268;2023-02-22T14:36:21;101120.31;;;10.15;100.00
76424;BME280;65257;52.104;4.268;2023-02-22T14:38:48;101116.03;;;9.95;100.00
76424;BME280;65257;52.104;4.268;2023-02-22T14:41:21;101126.69;;;9.66;100.00
76424;BME280;65257;52.104;4.268;2023-02-22T14:43:52;101129.38;;;9.69;100.00
76424;BME280;65257;52.104;4.268;2023-02-22T14:46:22;101138.28;;;9.58;100.00
76424;BME280;65257;52.104;4.268;2023-02-22T14:48:55;101131.94;;;9.30;100.00
76424;BME280;65257;52.104;4.268;2023-02-22T14:51:26;101130.75;;;9.41;100.00
76424;BME280;65257;52.104;4.268;2023-02-22T14:54:13;101132.47;;;9.42;100.00
76424;BME280;65257;52.104;4.268;2023-02-22T14:56:49;101139.69;;;9.32;100.00
76424;BME280;65257;52.104;4.268;2023-02-22T14:59:22;101141.59;;;9.37;100.00
76424;BME280;65257;52.104;4.268;2023-02-22T15:02:11;101146.31;;;9.48;100.00
76424;BME280;65257;52.104;4.268;2023-02-22T15:04:38;101141.47;;;9.54;100.00
76424;BME280;65257;52.104;4.268;2023-02-22T15:07:20;101141.34;;;9.31;100.00